Caro, Michigan
Current Conditions -  °F | °C
As of 11:05 PM on Tuesday 25 Nov 2014 (Local Time) from KCFS Reporting Station
Overcast Overcast  
Wind Chill: 24°   Ceiling: 2400
Heat Index: 30°   Visibility: 10mi
Dew Point: 23°   Wind: 6mph
Humidity: 75%   Direction: 220°SW
Pressure: 30.18"   Gusts: NA
Location:  43.49°N, 83.4°W
Report Text: KCFS 260405Z AUTO 22005KT 10SM OVC024 M01/M05 A3018 RMK AO2
Loading
Personal Weather Stations






























Interactive Weather Map New forecast layout! Learn more

10-Day Weather Forecast

Advertisements
Track Severe Weather on mobile